Time;durP1;ratioP1;P1;durP2;ratioP2;P2;SDS_P1;SDS_P2;PMS_P1;PMS_P2;Temp;Humidity;BMP_temperature;BMP_pressure;BME280_temperature;BME280_humidity;BME280_pressure;Samples;Min_cycle;Max_cycle;Signal;HPM_P1;HPM_P2
2022/05/30 00:02:07;;;;;;;8.95;2.60;;;;;;;;;;4346658;33;19958;-77
2022/05/30 00:04:37;;;;;;;14.60;3.25;;;;;;;;;;4346871;33;20181;-76
2022/05/30 00:07:06;;;;;;;13.62;3.03;;;;;;;;;;4347403;33;20028;-76
2022/05/30 00:09:33;;;;;;;8.75;2.60;;;;;;;;;;4346677;33;20468;-77
2022/05/30 00:12:00;;;;;;;7.55;2.37;;;;;;;;;;4346186;33;20507;-76
2022/05/30 00:14:26;;;;;;;9.18;2.70;;;;;;;;;;4346701;33;20086;-76
2022/05/30 00:16:51;;;;;;;;;;;;;;;;;;4346828;33;20040;-77
2022/05/30 00:19:17;;;;;;;10.48;2.72;;;;;;;;;;4346462;33;19938;-77
2022/05/30 00:21:44;;;;;;;;;;;;;;;;;;4333304;33;20182;-77
2022/05/30 00:24:09;;;;;;;15.10;3.25;;;;;;;;;;4346836;33;20022;-77
2022/05/30 00:26:34;;;;;;;;;;;;;;;;;;4347681;33;20031;-77
2022/05/30 00:29:00;;;;;;;8.95;2.30;;;;;;;;;;4346981;33;19947;-76
2022/05/30 00:31:25;;;;;;;;;;;;;;;;;;4346896;33;20031;-77
2022/05/30 00:33:50;;;;;;;9.38;3.35;;;;;;;;;;4346688;33;19943;-76
2022/05/30 00:36:16;;;;;;;;;;;;;;;;;;4347045;33;20040;-77
2022/05/30 00:38:41;;;;;;;10.75;3.50;;;;;;;;;;4383315;27;19942;-74
2022/05/30 00:41:06;;;;;;;;;;;;;;;;;;4390775;32;20142;-75
2022/05/30 00:43:33;;;;;;;12.57;3.40;;;;;;;;;;4389921;32;20315;-75
2022/05/30 00:45:59;;;;;;;9.82;3.25;;;;;;;;;;4392850;32;20030;-75
2022/05/30 00:48:33;;;;;;;12.18;3.42;;;;;;;;;;4378205;32;20023;-75
2022/05/30 00:51:00;;;;;;;16.55;3.55;;;;;;;;;;4375737;32;20027;-76
2022/05/30 00:53:26;;;;;;;11.07;2.72;;;;;;;;;;4376354;32;20061;-74
2022/05/30 00:55:51;;;;;;;;;;;;;;;;;;4375861;32;20102;-74
2022/05/30 00:58:17;;;;;;;15.52;3.17;;;;;;;;;;4376957;32;19934;-74
2022/05/30 01:00:42;;;;;;;9.80;3.60;;;;;;;;;;4375852;32;20054;-74
2022/05/30 01:08:36;;;;;;;10.55;2.60;;;;;;;;;;4390097;32;20053;-73
2022/05/30 01:11:01;;;;;;;;;;;;;;;;;;4374260;32;20098;-74
2022/05/30 01:13:27;;;;;;;12.30;3.37;;;;;;;;;;4361675;32;19972;-74
2022/05/30 01:15:52;;;;;;;;;;;;;;;;;;4362577;32;20521;-75
2022/05/30 01:18:33;;;;;;;10.15;3.05;;;;;;;;;;4360818;33;20339;-75
2022/05/30 01:21:05;;;;;;;10.25;2.80;;;;;;;;;;4362211;32;20032;-75
2022/05/30 01:23:40;;;;;;;8.73;2.55;;;;;;;;;;4362381;32;20078;-75
2022/05/30 01:26:16;;;;;;;7.75;2.50;;;;;;;;;;4362313;32;20069;-75
2022/05/30 01:28:44;;;;;;;13.27;2.67;;;;;;;;;;4359319;33;20353;-75
2022/05/30 01:31:10;;;;;;;11.55;2.72;;;;;;;;;;4362548;32;20125;-75
2022/05/30 01:33:35;;;;;;;;;;;;;;;;;;4360856;32;20345;-75
2022/05/30 01:36:00;;;;;;;11.57;2.90;;;;;;;;;;4369141;32;19984;-74
2022/05/30 01:38:27;;;;;;;;;;;;;;;;;;4386336;32;20217;-75
2022/05/30 01:40:53;;;;;;;15.35;4.22;;;;;;;;;;4391623;32;20316;-75
2022/05/30 01:43:18;;;;;;;;;;;;;;;;;;4391318;32;20085;-74
2022/05/30 01:45:43;;;;;;;11.88;2.85;;;;;;;;;;4392432;32;19934;-74
2022/05/30 01:48:08;;;;;;;;;;;;;;;;;;4390812;32;20102;-74
2022/05/30 01:50:34;;;;;;;8.25;1.90;;;;;;;;;;4389567;32;19942;-74
2022/05/30 01:52:59;;;;;;;;;;;;;;;;;;4390299;32;20050;-74
2022/05/30 01:55:25;;;;;;;7.93;3.30;;;;;;;;;;4391900;32;19976;-74
2022/05/30 01:57:50;;;;;;;;;;;;;;;;;;4391895;32;20022;-75
2022/05/30 02:00:15;;;;;;;6.95;2.50;;;;;;;;;;4391945;32;20229;-75
2022/05/30 02:02:40;;;;;;;;;;;;;;;;;;4392360;32;20053;-75
2022/05/30 02:05:06;;;;;;;11.95;4.18;;;;;;;;;;4386795;32;19938;-74
2022/05/30 02:07:31;;;;;;;;;;;;;;;;;;4375428;32;20024;-75
2022/05/30 02:09:56;;;;;;;12.13;2.50;;;;;;;;;;4374900;32;19957;-75
2022/05/30 02:12:21;;;;;;;;;;;;;;;;;;4375851;32;20023;-74
2022/05/30 02:14:46;;;;;;;5.40;2.33;;;;;;;;;;4374629;32;19938;-74
2022/05/30 02:17:11;;;;;;;;;;;;;;;;;;4375647;32;20314;-74
2022/05/30 02:19:38;;;;;;;10.85;2.62;;;;;;;;;;4373661;32;19939;-74
2022/05/30 02:22:04;;;;;;;9.02;1.98;;;;;;;;;;4376821;32;20118;-74
2022/05/30 02:24:29;;;;;;;;;;;;;;;;;;4376941;32;20034;-75
2022/05/30 02:26:54;;;;;;;7.55;2.30;;;;;;;;;;4375593;32;19930;-75
2022/05/30 02:29:19;;;;;;;;;;;;;;;;;;4374926;32;20093;-75
2022/05/30 02:31:44;;;;;;;5.40;2.03;;;;;;;;;;4375250;32;19938;-75
2022/05/30 02:36:53;;;;;;;11.65;2.72;;;;;;;;;;4374966;32;20257;-74
2022/05/30 02:39:18;;;;;;;;;;;;;;;;;;4375464;32;20039;-75
2022/05/30 02:41:46;;;;;;;7.65;1.58;;;;;;;;;;4376038;32;19985;-75
2022/05/30 02:44:12;;;;;;;3.67;2.05;;;;;;;;;;4377272;32;20038;-75
2022/05/30 02:46:37;;;;;;;;;;;;;;;;;;4376583;32;20080;-75
2022/05/30 02:49:03;;;;;;;9.95;2.50;;;;;;;;;;4376766;32;20334;-75
2022/05/30 02:51:28;;;;;;;;;;;;;;;;;;4377225;32;20081;-75
2022/05/30 02:53:53;;;;;;;10.18;2.20;;;;;;;;;;4378787;32;19938;-75
2022/05/30 02:56:19;;;;;;;;;;;;;;;;;;4378529;32;20034;-75
2022/05/30 02:58:44;;;;;;;6.90;2.00;;;;;;;;;;4379313;32;19960;-74
2022/05/30 03:01:09;;;;;;;;;;;;;;;;;;4379533;32;20089;-75
2022/05/30 03:03:34;;;;;;;7.80;2.50;;;;;;;;;;4377765;32;19934;-75
2022/05/30 03:06:00;;;;;;;;;;;;;;;;;;4386995;32;20165;-75
2022/05/30 03:08:25;;;;;;;7.12;2.20;;;;;;;;;;4392794;32;20001;-75
2022/05/30 03:10:50;;;;;;;;;;;;;;;;;;4394450;32;20045;-75
2022/05/30 03:13:15;;;;;;;10.27;3.15;;;;;;;;;;4392797;32;19937;-75
2022/05/30 03:15:40;;;;;;;;;;;;;;;;;;4394725;32;20027;-75
2022/05/30 03:18:06;;;;;;;6.15;2.08;;;;;;;;;;4393318;32;19945;-75
2022/05/30 03:20:31;;;;;;;;;;;;;;;;;;4392716;32;20023;-75
2022/05/30 03:22:56;;;;;;;8.80;3.20;;;;;;;;;;4394259;32;19934;-76
2022/05/30 03:25:21;;;;;;;;;;;;;;;;;;4394190;32;20093;-75
2022/05/30 03:27:46;;;;;;;12.25;4.45;;;;;;;;;;4392212;32;19934;-75
2022/05/30 03:30:11;;;;;;;;;;;;;;;;;;4392648;32;20314;-75
2022/05/30 03:32:37;;;;;;;19.85;6.25;;;;;;;;;;4391836;32;19952;-75
2022/05/30 03:35:02;;;;;;;;;;;;;;;;;;4390235;32;20028;-75
2022/05/30 03:37:27;;;;;;;12.73;4.53;;;;;;;;;;4378927;32;19953;-75
2022/05/30 03:39:52;;;;;;;;;;;;;;;;;;4377018;32;20069;-75
2022/05/30 03:42:17;;;;;;;14.48;4.20;;;;;;;;;;4376546;32;19938;-75
2022/05/30 03:44:42;;;;;;;;;;;;;;;;;;4377160;32;20071;-75
2022/05/30 03:47:08;;;;;;;19.00;4.50;;;;;;;;;;4375762;32;19938;-74
2022/05/30 03:49:33;;;;;;;;;;;;;;;;;;4379310;32;20035;-75
2022/05/30 03:51:58;;;;;;;9.68;3.90;;;;;;;;;;4376780;32;19942;-74
2022/05/30 03:54:23;;;;;;;;;;;;;;;;;;4377980;32;20027;-75
2022/05/30 03:56:48;;;;;;;13.43;4.50;;;;;;;;;;4378392;32;19949;-74
2022/05/30 03:59:14;;;;;;;;;;;;;;;;;;4378644;32;20035;-75
2022/05/30 04:01:39;;;;;;;8.40;3.97;;;;;;;;;;4377983;32;19938;-74
2022/05/30 04:04:04;;;;;;;;;;;;;;;;;;4376617;32;20039;-74
2022/05/30 04:06:29;;;;;;;16.50;5.43;;;;;;;;;;4392237;32;19939;-74
2022/05/30 04:08:54;;;;;;;;;;;;;;;;;;4392128;32;20023;-74
2022/05/30 04:11:19;;;;;;;7.82;3.50;;;;;;;;;;4391873;32;19938;-74
2022/05/30 04:13:44;;;;;;;;;;;;;;;;;;4392077;32;20019;-74
2022/05/30 04:16:10;;;;;;;10.10;4.70;;;;;;;;;;4392022;32;20326;-74
2022/05/30 04:18:35;;;;;;;;;;;;;;;;;;4393166;32;20102;-74
2022/05/30 04:21:00;;;;;;;14.23;3.80;;;;;;;;;;4390159;32;19938;-74
2022/05/30 04:23:26;;;;;;;;;;;;;;;;;;4377118;32;20139;-74
2022/05/30 04:25:51;;;;;;;12.15;3.42;;;;;;;;;;4375521;32;19979;-75
2022/05/30 04:28:16;;;;;;;;;;;;;;;;;;4377738;32;20049;-74
2022/05/30 04:30:41;;;;;;;13.23;5.18;;;;;;;;;;4376708;32;20213;-75
2022/05/30 04:33:06;;;;;;;;;;;;;;;;;;4377067;32;20019;-75
2022/05/30 04:35:31;;;;;;;12.32;3.35;;;;;;;;;;4385620;32;19968;-74
2022/05/30 04:37:56;;;;;;;;;;;;;;;;;;4392152;32;20544;-74
2022/05/30 04:40:22;;;;;;;10.25;2.90;;;;;;;;;;4391563;32;19956;-73
2022/05/30 04:42:47;;;;;;;;;;;;;;;;;;4391453;32;20114;-75
2022/05/30 04:45:12;;;;;;;10.63;2.80;;;;;;;;;;4390780;32;19984;-75
2022/05/30 04:47:39;;;;;;;;;;;;;;;;;;4390014;32;20424;-74
2022/05/30 04:50:05;;;;;;;9.50;2.85;;;;;;;;;;4392532;32;19975;-75
2022/05/30 04:52:30;;;;;;;;;;;;;;;;;;4390036;32;20065;-75
2022/05/30 04:54:55;;;;;;;8.02;3.30;;;;;;;;;;4391110;32;19937;-75
2022/05/30 04:57:20;;;;;;;;;;;;;;;;;;4391325;32;20152;-75
2022/05/30 04:59:45;;;;;;;15.20;2.70;;;;;;;;;;4390438;32;19949;-74
2022/05/30 05:02:12;;;;;;;;;;;;;;;;;;4392672;32;20026;-73
2022/05/30 05:04:38;;;;;;;13.62;3.35;;;;;;;;;;4403127;32;19941;-73
2022/05/30 05:07:03;;;;;;;;;;;;;;;;;;4392852;32;20463;-73
2022/05/30 05:09:38;;;;;;;7.57;1.77;;;;;;;;;;4390738;32;19971;-75
2022/05/30 05:12:03;;;;;;;10.65;4.25;;;;;;;;;;4392206;32;20022;-75
2022/05/30 05:14:28;;;;;;;;;;;;;;;;;;4391260;32;20329;-75
2022/05/30 05:16:53;;;;;;;3.85;1.95;;;;;;;;;;4392043;32;20330;-75
2022/05/30 05:19:18;;;;;;;;;;;;;;;;;;4392437;32;20068;-74
2022/05/30 05:21:45;;;;;;;6.35;2.40;;;;;;;;;;4392043;32;19946;-75
2022/05/30 05:24:11;;;;;;;8.00;2.62;;;;;;;;;;4390615;32;20200;-73
2022/05/30 05:26:36;;;;;;;;;;;;;;;;;;4391699;32;20027;-74
2022/05/30 05:29:01;;;;;;;10.13;3.12;;;;;;;;;;4390585;32;19949;-74
2022/05/30 05:31:26;;;;;;;;;;;;;;;;;;4390198;32;20061;-72
2022/05/30 05:33:52;;;;;;;6.70;2.00;;;;;;;;;;4391898;32;19968;-72
2022/05/30 05:36:17;;;;;;;;;;;;;;;;;;4376848;32;20124;-74
2022/05/30 05:38:42;;;;;;;7.00;1.95;;;;;;;;;;4375735;32;19942;-74
2022/05/30 05:41:07;;;;;;;;;;;;;;;;;;4376544;32;20027;-73
2022/05/30 05:43:32;;;;;;;7.82;2.30;;;;;;;;;;4377643;32;19942;-73
2022/05/30 05:45:58;;;;;;;;;;;;;;;;;;4373927;32;20019;-74
2022/05/30 05:48:23;;;;;;;7.40;1.85;;;;;;;;;;4375420;32;19996;-73
2022/05/30 05:50:48;;;;;;;;;;;;;;;;;;4376082;32;20035;-74
2022/05/30 05:53:13;;;;;;;5.15;2.00;;;;;;;;;;4376006;32;19931;-75
2022/05/30 05:55:38;;;;;;;;;;;;;;;;;;4375410;32;20027;-74
2022/05/30 05:58:04;;;;;;;9.88;2.22;;;;;;;;;;4376022;32;19946;-74
2022/05/30 06:00:31;;;;;;;8.00;2.12;;;;;;;;;;4375390;32;20057;-73
2022/05/30 06:02:56;;;;;;;4.87;1.87;;;;;;;;;;4387386;32;20365;-73
2022/05/30 06:05:21;;;;;;;;;;;;;;;;;;4385323;32;20019;-74
2022/05/30 06:07:46;;;;;;;7.03;2.15;;;;;;;;;;4390200;32;19946;-73
2022/05/30 06:10:11;;;;;;;;;;;;;;;;;;4391217;32;20185;-75
2022/05/30 06:12:38;;;;;;;6.07;3.00;;;;;;;;;;4389781;32;19944;-73
2022/05/30 06:15:04;;;;;;;9.88;3.10;;;;;;;;;;4390005;32;20027;-74
2022/05/30 06:17:32;;;;;;;9.93;2.40;;;;;;;;;;4391351;32;20023;-73
2022/05/30 06:19:57;;;;;;;11.73;2.70;;;;;;;;;;4389805;32;20110;-74
2022/05/30 06:22:22;;;;;;;;;;;;;;;;;;4391373;32;20026;-74
2022/05/30 06:24:48;;;;;;;6.30;1.45;;;;;;;;;;4389703;32;19938;-74
2022/05/30 06:27:17;;;;;;;;;;;;;;;;;;4390368;32;20306;-73
2022/05/30 06:29:42;;;;;;;10.95;2.67;;;;;;;;;;4392568;32;20287;-73
2022/05/30 06:32:07;;;;;;;8.88;2.05;;;;;;;;;;4392950;32;20438;-74
2022/05/30 06:34:33;;;;;;;;;;;;;;;;;;4389360;32;20119;-73
2022/05/30 06:36:58;;;;;;;6.45;2.12;;;;;;;;;;4379578;32;19949;-74
2022/05/30 06:39:23;;;;;;;;;;;;;;;;;;4377765;32;20069;-75
2022/05/30 06:41:48;;;;;;;3.78;1.52;;;;;;;;;;4379873;32;19968;-73
2022/05/30 06:44:13;;;;;;;;;;;;;;;;;;4390102;32;20122;-74
2022/05/30 06:46:39;;;;;;;6.95;1.83;;;;;;;;;;4392468;32;19976;-75
2022/05/30 06:49:04;;;;;;;;;;;;;;;;;;4394947;32;20068;-74
2022/05/30 06:51:29;;;;;;;5.60;1.65;;;;;;;;;;4393344;32;19983;-74
2022/05/30 06:53:54;;;;;;;;;;;;;;;;;;4392723;32;20123;-73
2022/05/30 06:56:27;;;;;;;5.78;2.17;;;;;;;;;;4391527;32;19964;-74
2022/05/30 06:58:53;;;;;;;4.60;1.62;;;;;;;;;;4394269;32;20022;-73
2022/05/30 07:01:19;;;;;;;7.45;1.62;;;;;;;;;;4392082;32;20081;-75
2022/05/30 07:03:45;;;;;;;9.63;2.15;;;;;;;;;;4394180;32;20054;-75
2022/05/30 07:06:11;;;;;;;7.32;1.55;;;;;;;;;;4378000;32;20074;-74
2022/05/30 07:08:36;;;;;;;6.20;1.58;;;;;;;;;;4377592;32;20054;-73
2022/05/30 07:11:02;;;;;;;5.18;1.55;;;;;;;;;;4379325;32;20027;-73
2022/05/30 07:13:27;;;;;;;;;;;;;;;;;;4381368;32;20046;-74
2022/05/30 07:15:52;;;;;;;4.28;1.40;;;;;;;;;;4384765;32;19938;-73
2022/05/30 07:18:18;;;;;;;;;;;;;;;;;;4379441;32;20032;-74
2022/05/30 07:20:43;;;;;;;6.28;1.70;;;;;;;;;;4377820;32;19930;-74
2022/05/30 07:23:08;;;;;;;;;;;;;;;;;;4378157;32;20027;-74
2022/05/30 07:25:35;;;;;;;5.07;1.73;;;;;;;;;;4378488;32;19953;-75
2022/05/30 07:28:00;;;;;;;7.37;1.40;;;;;;;;;;4377334;32;20377;-73
2022/05/30 07:30:26;;;;;;;7.12;1.58;;;;;;;;;;4377290;32;20435;-74
2022/05/30 07:32:51;;;;;;;9.18;2.20;;;;;;;;;;4378507;32;20050;-73
2022/05/30 07:35:16;;;;;;;;;;;;;;;;;;4398354;32;20436;-73
2022/05/30 07:37:42;;;;;;;9.48;2.10;;;;;;;;;;4392488;32;19938;-73
2022/05/30 07:40:08;;;;;;;3.55;1.20;;;;;;;;;;4391715;32;20034;-73
2022/05/30 07:42:33;;;;;;;4.35;1.70;;;;;;;;;;4390363;32;20050;-73
2022/05/30 07:44:58;;;;;;;;;;;;;;;;;;4392386;32;20076;-74
2022/05/30 07:47:23;;;;;;;3.90;1.40;;;;;;;;;;4393728;32;19967;-74
2022/05/30 07:49:48;;;;;;;;;;;;;;;;;;4392977;32;20111;-75
2022/05/30 07:52:14;;;;;;;4.43;1.12;;;;;;;;;;4391405;32;20304;-73
2022/05/30 07:54:39;;;;;;;5.68;1.77;;;;;;;;;;4392044;32;20049;-74
2022/05/30 07:57:05;;;;;;;3.12;1.37;;;;;;;;;;4391895;32;20080;-74
2022/05/30 07:59:31;;;;;;;4.32;1.15;;;;;;;;;;4393565;32;20144;-74
2022/05/30 08:01:57;;;;;;;4.25;1.55;;;;;;;;;;4395020;32;20097;-73
2022/05/30 08:04:22;;;;;;;6.43;1.30;;;;;;;;;;4403928;32;20125;-74
2022/05/30 08:06:47;;;;;;;5.82;1.67;;;;;;;;;;4392076;32;20049;-74
2022/05/30 08:09:12;;;;;;;;;;;;;;;;;;4393021;32;20177;-74
2022/05/30 08:11:37;;;;;;;7.03;1.70;;;;;;;;;;4391133;32;19941;-73
2022/05/30 08:14:03;;;;;;;4.97;1.15;;;;;;;;;;4392163;32;20019;-73
2022/05/30 08:16:28;;;;;;;7.57;1.67;;;;;;;;;;4392273;32;20065;-72
2022/05/30 08:18:53;;;;;;;;;;;;;;;;;;4392210;32;20046;-74
2022/05/30 08:21:18;;;;;;;4.82;1.27;;;;;;;;;;4391869;32;20311;-74
2022/05/30 08:23:44;;;;;;;5.07;1.45;;;;;;;;;;4389824;32;20031;-73
2022/05/30 08:26:10;;;;;;;6.78;1.23;;;;;;;;;;4391800;32;20090;-73
2022/05/30 08:28:35;;;;;;;4.43;1.25;;;;;;;;;;4390945;32;20034;-73
2022/05/30 08:31:01;;;;;;;2.47;0.98;;;;;;;;;;4390328;32;20026;-73
2022/05/30 08:33:27;;;;;;;;;;;;;;;;;;4391091;32;20065;-73
2022/05/30 08:36:21;;;;;;;5.95;1.48;;;;;;;;;;4375009;32;19930;-73
2022/05/30 08:38:47;;;;;;;3.92;1.45;;;;;;;;;;4369481;32;20065;-74
2022/05/30 08:44:00;;;;;;;5.50;1.30;;;;;;;;;;4377811;32;20376;-73
2022/05/30 08:46:47;;;;;;;1.67;1.33;;;;;;;;;;4379824;32;20056;-74
2022/05/30 08:49:22;;;;;;;1.92;1.02;;;;;;;;;;4377742;32;20061;-74
2022/05/30 08:51:47;;;;;;;3.97;1.58;;;;;;;;;;4375711;32;20026;-74
2022/05/30 08:54:31;;;;;;;2.67;0.98;;;;;;;;;;4376288;32;20056;-74
2022/05/30 08:56:58;;;;;;;6.57;2.72;;;;;;;;;;4375868;32;20042;-73
2022/05/30 08:59:41;;;;;;;4.45;1.20;;;;;;;;;;4375786;32;20451;-74
2022/05/30 09:02:16;;;;;;;5.15;1.10;;;;;;;;;;4377441;32;20058;-73
2022/05/30 09:04:47;;;;;;;4.30;1.00;;;;;;;;;;4375880;32;20026;-74
2022/05/30 09:07:18;;;;;;;3.15;1.20;;;;;;;;;;4376003;32;20026;-74
2022/05/30 09:09:55;;;;;;;3.22;1.10;;;;;;;;;;4375817;32;20114;-73
2022/05/30 09:12:29;;;;;;;4.15;1.25;;;;;;;;;;4377044;32;20365;-73
2022/05/30 09:15:00;;;;;;;3.85;1.25;;;;;;;;;;4376721;32;20096;-74
2022/05/30 09:17:34;;;;;;;1.65;0.85;;;;;;;;;;4376948;32;20030;-74
2022/05/30 09:20:01;;;;;;;3.78;1.02;;;;;;;;;;4376726;32;20372;-74
2022/05/30 09:22:27;;;;;;;2.25;0.98;;;;;;;;;;4376765;32;20458;-74
2022/05/30 09:27:44;;;;;;;2.45;0.95;;;;;;;;;;4365652;32;20060;-75
2022/05/30 09:30:12;;;;;;;1.80;1.00;;;;;;;;;;4388845;32;20070;-75
2022/05/30 09:33:12;;;;;;;2.92;1.00;;;;;;;;;;4376688;32;20076;-74
2022/05/30 09:35:37;;;;;;;4.53;1.10;;;;;;;;;;4349201;32;20026;-74
2022/05/30 09:38:07;;;;;;;2.75;0.98;;;;;;;;;;4375425;32;20068;-73
2022/05/30 09:40:36;;;;;;;2.67;0.90;;;;;;;;;;4377314;32;20027;-74
2022/05/30 09:43:04;;;;;;;1.92;0.70;;;;;;;;;;4375677;32;20023;-75
2022/05/30 09:45:30;;;;;;;2.50;0.85;;;;;;;;;;4375036;32;20090;-75
2022/05/30 09:47:59;;;;;;;4.05;1.20;;;;;;;;;;4375201;32;20061;-75
2022/05/30 09:50:25;;;;;;;4.18;1.02;;;;;;;;;;4374646;32;20061;-75
2022/05/30 09:52:50;;;;;;;3.47;0.90;;;;;;;;;;4375269;32;20456;-74
2022/05/30 09:55:27;;;;;;;2.37;1.30;;;;;;;;;;4375971;32;20314;-74
2022/05/30 09:57:53;;;;;;;1.05;0.70;;;;;;;;;;4376235;32;20165;-74
2022/05/30 10:00:20;;;;;;;3.47;1.15;;;;;;;;;;4376335;32;20062;-74
2022/05/30 10:02:57;;;;;;;1.20;0.82;;;;;;;;;;4381463;32;20023;-75
2022/05/30 10:05:27;;;;;;;2.28;1.15;;;;;;;;;;4391930;32;20355;-74
2022/05/30 10:07:54;;;;;;;1.65;0.85;;;;;;;;;;4393054;32;20049;-74
2022/05/30 10:10:21;;;;;;;1.08;0.80;;;;;;;;;;4394923;32;20145;-74
2022/05/30 10:12:57;;;;;;;4.72;1.40;;;;;;;;;;4393474;32;20031;-74
2022/05/30 10:15:42;;;;;;;2.53;1.00;;;;;;;;;;4393282;32;20026;-74
2022/05/30 10:18:13;;;;;;;7.18;1.52;;;;;;;;;;4404376;32;20026;-74
2022/05/30 10:20:42;;;;;;;5.07;1.60;;;;;;;;;;4394582;32;20022;-74
2022/05/30 10:29:16;;;;;;;3.75;1.10;;;;;;;;;;4351518;32;20369;-74
2022/05/30 10:31:44;;;;;;;3.25;1.67;;;;;;;;;;4394838;32;20113;-74
2022/05/30 10:34:35;;;;;;;2.37;0.85;;;;;;;;;;4391019;32;20404;-74
2022/05/30 10:37:20;;;;;;;2.60;1.15;;;;;;;;;;4392682;32;20452;-74
2022/05/30 10:39:45;;;;;;;6.07;1.00;;;;;;;;;;4391723;32;20088;-74
2022/05/30 10:42:30;;;;;;;5.82;1.00;;;;;;;;;;4393597;32;20404;-73
2022/05/30 10:44:59;;;;;;;6.12;1.33;;;;;;;;;;4392523;32;20050;-74
2022/05/30 10:47:33;;;;;;;2.42;1.10;;;;;;;;;;4394492;32;20053;-73
2022/05/30 10:50:04;;;;;;;2.35;1.00;;;;;;;;;;4394606;32;20050;-73
2022/05/30 10:52:34;;;;;;;2.25;0.80;;;;;;;;;;4391008;32;20018;-74
2022/05/30 10:55:02;;;;;;;2.45;1.15;;;;;;;;;;4393670;32;20027;-74
2022/05/30 10:57:45;;;;;;;4.00;1.33;;;;;;;;;;4393551;32;20018;-74
2022/05/30 11:00:15;;;;;;;5.95;1.40;;;;;;;;;;4393959;32;20208;-75
2022/05/30 11:02:49;;;;;;;2.53;1.23;;;;;;;;;;4386505;32;20420;-74
2022/05/30 11:05:33;;;;;;;6.65;1.40;;;;;;;;;;4377723;32;20026;-74
2022/05/30 11:08:05;;;;;;;9.75;1.37;;;;;;;;;;4377166;32;20133;-74
2022/05/30 11:10:45;;;;;;;2.50;1.10;;;;;;;;;;4379106;32;20085;-74
2022/05/30 11:13:18;;;;;;;6.95;1.42;;;;;;;;;;4376473;32;20104;-74
2022/05/30 11:15:46;;;;;;;2.28;1.23;;;;;;;;;;4376942;32;20053;-73
2022/05/30 11:18:24;;;;;;;7.03;1.77;;;;;;;;;;4378304;32;20466;-74
2022/05/30 11:20:56;;;;;;;3.95;1.17;;;;;;;;;;4378679;32;20027;-75
2022/05/30 11:23:22;;;;;;;5.45;1.40;;;;;;;;;;4377927;32;20356;-74
2022/05/30 11:25:47;;;;;;;3.90;1.23;;;;;;;;;;4378337;32;20035;-74
2022/05/30 11:28:41;;;;;;;3.25;1.40;;;;;;;;;;4377207;32;20027;-74
2022/05/30 11:31:26;;;;;;;4.78;1.70;;;;;;;;;;4367253;32;20200;-74
2022/05/30 11:33:59;;;;;;;3.83;1.40;;;;;;;;;;4391777;32;20088;-73
2022/05/30 11:36:42;;;;;;;6.97;1.70;;;;;;;;;;4392522;32;20027;-74
2022/05/30 11:39:23;;;;;;;3.72;1.50;;;;;;;;;;4391608;32;20035;-74
2022/05/30 11:41:51;;;;;;;2.60;1.30;;;;;;;;;;4393019;32;20054;-75
2022/05/30 11:44:19;;;;;;;3.97;1.23;;;;;;;;;;4393002;32;20031;-73
2022/05/30 11:46:47;;;;;;;5.35;1.17;;;;;;;;;;4393696;32;20057;-75
2022/05/30 11:49:27;;;;;;;4.25;1.27;;;;;;;;;;4393243;32;20099;-73
2022/05/30 11:52:15;;;;;;;4.75;1.40;;;;;;;;;;4390481;32;20058;-75
2022/05/30 11:54:51;;;;;;;4.47;1.12;;;;;;;;;;4392361;32;20031;-74
2022/05/30 11:57:29;;;;;;;1.85;1.33;;;;;;;;;;4393097;32;20018;-74
2022/05/30 12:00:02;;;;;;;4.37;1.40;;;;;;;;;;4391473;32;20388;-74
2022/05/30 12:02:37;;;;;;;4.00;1.37;;;;;;;;;;4386887;32;20444;-74
2022/05/30 12:05:26;;;;;;;5.35;1.40;;;;;;;;;;4378008;32;20364;-74
2022/05/30 12:08:10;;;;;;;7.30;1.60;;;;;;;;;;4388948;32;20057;-75
2022/05/30 12:10:35;;;;;;;3.78;1.30;;;;;;;;;;4375703;32;20057;-74
2022/05/30 12:13:27;;;;;;;4.22;1.20;;;;;;;;;;4378142;32;20059;-74
2022/05/30 12:16:13;;;;;;;3.25;1.10;;;;;;;;;;4377970;32;20049;-75
2022/05/30 12:24:09;;;;;;;5.18;1.42;;;;;;;;;;4377633;32;20472;-73
2022/05/30 12:26:46;;;;;;;3.53;1.77;;;;;;;;;;4375590;32;20030;-74
2022/05/30 12:29:29;;;;;;;3.72;1.30;;;;;;;;;;4377212;32;20204;-73
2022/05/30 12:32:16;;;;;;;5.78;1.77;;;;;;;;;;4379199;32;20046;-73
2022/05/30 12:35:05;;;;;;;2.87;1.08;;;;;;;;;;4392346;32;20077;-73
2022/05/30 12:37:46;;;;;;;3.72;1.23;;;;;;;;;;4391484;32;20023;-73
2022/05/30 12:40:12;;;;;;;5.12;1.20;;;;;;;;;;4389889;32;20127;-73
2022/05/30 12:42:42;;;;;;;4.53;1.33;;;;;;;;;;4391184;32;20045;-73
2022/05/30 12:45:33;;;;;;;6.32;1.70;;;;;;;;;;4392213;32;20023;-73
2022/05/30 12:48:00;;;;;;;3.90;1.40;;;;;;;;;;4384016;32;20026;-75
2022/05/30 12:50:32;;;;;;;7.90;1.60;;;;;;;;;;4393024;32;20072;-74
2022/05/30 12:52:59;;;;;;;4.80;1.30;;;;;;;;;;4390646;32;20030;-75
2022/05/30 12:55:39;;;;;;;4.30;1.37;;;;;;;;;;4390564;32;20026;-74
2022/05/30 12:58:05;;;;;;;4.95;1.65;;;;;;;;;;4391960;32;20030;-74
2022/05/30 13:00:36;;;;;;;5.03;1.42;;;;;;;;;;4390883;32;20057;-73
2022/05/30 13:03:03;;;;;;;3.37;1.50;;;;;;;;;;4380311;32;20141;-73
2022/05/30 13:05:36;;;;;;;3.37;1.42;;;;;;;;;;4375288;32;20027;-74
2022/05/30 13:08:01;;;;;;;4.65;2.45;;;;;;;;;;4375854;32;20059;-74
2022/05/30 13:10:35;;;;;;;4.15;1.55;;;;;;;;;;4374808;32;20353;-74
2022/05/30 13:13:07;;;;;;;7.82;1.98;;;;;;;;;;4376338;32;20015;-74
2022/05/30 13:15:45;;;;;;;4.45;1.55;;;;;;;;;;4376676;32;20090;-74
2022/05/30 13:18:19;;;;;;;2.28;1.15;;;;;;;;;;4375850;32;20454;-74
2022/05/30 13:20:50;;;;;;;3.62;1.37;;;;;;;;;;4373799;32;20056;-74
2022/05/30 13:23:16;;;;;;;3.83;1.10;;;;;;;;;;4376489;32;20096;-73
2022/05/30 13:25:50;;;;;;;5.53;1.70;;;;;;;;;;4376893;32;20097;-72
2022/05/30 13:28:19;;;;;;;3.83;1.55;;;;;;;;;;4375453;32;20027;-74
2022/05/30 13:30:45;;;;;;;3.55;1.60;;;;;;;;;;4375080;32;20072;-74
2022/05/30 13:33:18;;;;;;;5.30;1.40;;;;;;;;;;4387080;32;20395;-74
2022/05/30 13:35:44;;;;;;;5.97;1.65;;;;;;;;;;4388841;32;20041;-71
2022/05/30 13:38:10;;;;;;;7.07;2.05;;;;;;;;;;4389747;32;20031;-74
2022/05/30 13:40:35;;;;;;;5.60;1.80;;;;;;;;;;4384757;32;20440;-73
2022/05/30 13:43:02;;;;;;;5.32;2.40;;;;;;;;;;4377571;32;20160;-75
2022/05/30 13:45:29;;;;;;;5.80;1.48;;;;;;;;;;4376822;32;20070;-75
2022/05/30 13:47:59;;;;;;;5.50;1.70;;;;;;;;;;4376383;32;20031;-74
2022/05/30 13:50:25;;;;;;;3.45;1.50;;;;;;;;;;4375135;32;20049;-74
2022/05/30 13:52:50;;;;;;;3.90;1.52;;;;;;;;;;4375098;32;20062;-74
2022/05/30 13:55:21;;;;;;;4.57;1.40;;;;;;;;;;4376234;32;20125;-73
2022/05/30 13:57:47;;;;;;;6.07;1.65;;;;;;;;;;4376187;32;20031;-73
2022/05/30 14:00:18;;;;;;;7.50;2.53;;;;;;;;;;4376100;32;20076;-72
2022/05/30 14:02:45;;;;;;;5.82;1.70;;;;;;;;;;4375466;32;20076;-74
2022/05/30 14:05:12;;;;;;;3.95;1.40;;;;;;;;;;4374200;32;20023;-72
2022/05/30 14:07:46;;;;;;;3.62;1.40;;;;;;;;;;4375062;32;20150;-73
2022/05/30 14:10:13;;;;;;;3.50;1.48;;;;;;;;;;4375118;32;20052;-73
2022/05/30 14:12:41;;;;;;;3.12;1.73;;;;;;;;;;4374102;32;20050;-73
2022/05/30 14:15:06;;;;;;;4.87;1.52;;;;;;;;;;4377172;32;20023;-74
2022/05/30 14:17:32;;;;;;;6.50;2.47;;;;;;;;;;4376878;32;20081;-73
2022/05/30 14:20:08;;;;;;;4.80;1.70;;;;;;;;;;4376525;32;20290;-73
2022/05/30 14:22:33;;;;;;;4.55;1.48;;;;;;;;;;4375437;32;20027;-73
2022/05/30 14:25:01;;;;;;;3.67;1.58;;;;;;;;;;4376367;32;20381;-75
2022/05/30 14:27:29;;;;;;;4.72;1.75;;;;;;;;;;4375898;32;20042;-74
2022/05/30 14:30:03;;;;;;;6.50;1.60;;;;;;;;;;4374725;32;20105;-75
2022/05/30 14:32:33;;;;;;;7.22;1.67;;;;;;;;;;4385306;32;20088;-73
2022/05/30 14:35:04;;;;;;;5.62;1.80;;;;;;;;;;4389763;32;20053;-73
2022/05/30 14:37:29;;;;;;;5.93;2.08;;;;;;;;;;4391279;32;20119;-74
2022/05/30 14:39:59;;;;;;;4.00;1.75;;;;;;;;;;4389483;32;20039;-73
2022/05/30 14:42:32;;;;;;;4.78;1.30;;;;;;;;;;4388178;32;20073;-73
2022/05/30 14:45:03;;;;;;;5.25;1.40;;;;;;;;;;4391524;32;20045;-74
2022/05/30 14:47:33;;;;;;;6.00;1.70;;;;;;;;;;4390107;32;20018;-73
2022/05/30 14:50:03;;;;;;;5.75;1.80;;;;;;;;;;4391639;32;20056;-73
2022/05/30 14:52:32;;;;;;;4.00;1.60;;;;;;;;;;4392577;32;20030;-73
2022/05/30 14:55:02;;;;;;;5.37;1.50;;;;;;;;;;4391329;32;20026;-74
2022/05/30 14:57:28;;;;;;;6.00;1.70;;;;;;;;;;4391795;32;20027;-74
2022/05/30 14:59:53;;;;;;;4.97;1.60;;;;;;;;;;4392419;32;20093;-73
2022/05/30 15:05:04;;;;;;;5.22;1.75;;;;;;;;;;4378704;32;20368;-74
2022/05/30 15:07:31;;;;;;;6.20;1.37;;;;;;;;;;4378409;32;20034;-74
2022/05/30 15:09:57;;;;;;;6.30;2.00;;;;;;;;;;4378625;32;20027;-73
2022/05/30 15:12:22;;;;;;;3.28;1.60;;;;;;;;;;4377478;32;20141;-73
2022/05/30 15:14:47;;;;;;;3.58;1.83;;;;;;;;;;4376871;32;20076;-73
2022/05/30 15:17:12;;;;;;;5.82;2.22;;;;;;;;;;4378540;32;20435;-74
2022/05/30 15:19:37;;;;;;;4.68;2.00;;;;;;;;;;4389775;32;20035;-74
2022/05/30 15:22:07;;;;;;;5.27;2.20;;;;;;;;;;4378892;32;20092;-74
2022/05/30 15:24:34;;;;;;;3.58;1.75;;;;;;;;;;4378167;32;20179;-73
2022/05/30 15:27:00;;;;;;;6.65;2.30;;;;;;;;;;4378289;32;20053;-74
2022/05/30 15:29:25;;;;;;;7.07;1.85;;;;;;;;;;4377740;32;20035;-73
2022/05/30 15:31:51;;;;;;;5.22;1.80;;;;;;;;;;4395204;32;20420;-74
2022/05/30 15:34:17;;;;;;;3.60;2.08;;;;;;;;;;4393077;32;20290;-75
2022/05/30 15:36:42;;;;;;;8.13;2.08;;;;;;;;;;4393764;32;20049;-73
2022/05/30 15:39:15;;;;;;;5.65;1.98;;;;;;;;;;4391991;32;20043;-73
2022/05/30 15:41:41;;;;;;;5.05;1.58;;;;;;;;;;4393187;32;20035;-74